sensor_id;sensor_type;location;lat;lon;timestamp;pressure;altitude;pressure_sealevel;temperature;humidity
47588;BME280;34356;45.788;12.046;2022-09-02T00:01:26;100242.88;;;20.66;46.55
47588;BME280;34356;45.788;12.046;2022-09-02T00:03:56;100245.22;;;20.75;46.36
47588;BME280;34356;45.788;12.046;2022-09-02T00:06:25;100241.64;;;21.01;46.26
47588;BME280;34356;45.788;12.046;2022-09-02T00:08:52;100240.52;;;20.96;46.25
47588;BME280;34356;45.788;12.046;2022-09-02T00:11:23;100238.84;;;20.71;46.19
47588;BME280;34356;45.788;12.046;2022-09-02T00:13:51;100237.25;;;20.70;46.17
47588;BME280;34356;45.788;12.046;2022-09-02T00:16:19;100231.63;;;20.50;46.14
47588;BME280;34356;45.788;12.046;2022-09-02T00:18:46;100230.55;;;20.77;46.02
47588;BME280;34356;45.788;12.046;2022-09-02T00:21:14;100231.54;;;20.57;45.92
47588;BME280;34356;45.788;12.046;2022-09-02T00:23:43;100229.60;;;21.03;45.89
47588;BME280;34356;45.788;12.046;2022-09-02T00:26:11;100226.96;;;20.59;45.92
47588;BME280;34356;45.788;12.046;2022-09-02T00:28:40;100224.22;;;20.77;45.94
47588;BME280;34356;45.788;12.046;2022-09-02T00:31:08;100223.60;;;20.92;46.06
47588;BME280;34356;45.788;12.046;2022-09-02T00:33:36;100222.93;;;20.87;46.11
47588;BME280;34356;45.788;12.046;2022-09-02T00:36:06;100221.57;;;20.88;46.09
47588;BME280;34356;45.788;12.046;2022-09-02T00:38:34;100221.33;;;20.66;46.12
47588;BME280;34356;45.788;12.046;2022-09-02T00:41:04;100217.85;;;20.68;46.11
47588;BME280;34356;45.788;12.046;2022-09-02T00:43:44;100215.33;;;20.66;46.09
47588;BME280;34356;45.788;12.046;2022-09-02T00:46:14;100217.78;;;20.16;46.12
47588;BME280;34356;45.788;12.046;2022-09-02T00:48:46;100219.72;;;20.65;46.17
47588;BME280;34356;45.788;12.046;2022-09-02T00:51:15;100217.14;;;20.44;46.13
47588;BME280;34356;45.788;12.046;2022-09-02T00:53:44;100211.87;;;20.86;46.07
47588;BME280;34356;45.788;12.046;2022-09-02T00:56:18;100207.79;;;20.14;46.07
47588;BME280;34356;45.788;12.046;2022-09-02T00:58:47;100204.84;;;20.58;46.15
47588;BME280;34356;45.788;12.046;2022-09-02T01:01:16;100203.45;;;20.60;46.12
47588;BME280;34356;45.788;12.046;2022-09-02T01:03:43;100201.90;;;20.63;46.08
47588;BME280;34356;45.788;12.046;2022-09-02T01:06:11;100198.58;;;20.41;46.08
47588;BME280;34356;45.788;12.046;2022-09-02T01:08:45;100197.71;;;20.61;46.08
47588;BME280;34356;45.788;12.046;2022-09-02T01:11:13;100195.41;;;20.37;46.04
47588;BME280;34356;45.788;12.046;2022-09-02T01:13:42;100195.78;;;20.57;46.08
47588;BME280;34356;45.788;12.046;2022-09-02T01:16:14;100197.73;;;20.31;46.07
47588;BME280;34356;45.788;12.046;2022-09-02T01:18:46;100197.80;;;20.72;46.12
47588;BME280;34356;45.788;12.046;2022-09-02T01:21:15;100199.29;;;20.48;46.17
47588;BME280;34356;45.788;12.046;2022-09-02T01:23:42;100201.89;;;20.48;46.20
47588;BME280;34356;45.788;12.046;2022-09-02T01:26:09;100205.23;;;20.45;46.24
47588;BME280;34356;45.788;12.046;2022-09-02T01:28:37;100208.18;;;20.39;46.36
47588;BME280;34356;45.788;12.046;2022-09-02T01:31:04;100212.47;;;20.35;46.46
47588;BME280;34356;45.788;12.046;2022-09-02T01:33:32;100211.27;;;20.54;46.53
47588;BME280;34356;45.788;12.046;2022-09-02T01:36:00;100212.69;;;20.52;46.64
47588;BME280;34356;45.788;12.046;2022-09-02T01:38:26;100217.00;;;20.28;46.64
47588;BME280;34356;45.788;12.046;2022-09-02T01:40:53;100219.24;;;20.25;46.65
47588;BME280;34356;45.788;12.046;2022-09-02T01:43:23;100221.19;;;20.23;46.71
47588;BME280;34356;45.788;12.046;2022-09-02T01:45:52;100222.66;;;20.42;46.82
47588;BME280;34356;45.788;12.046;2022-09-02T01:48:21;100222.15;;;20.11;46.93
47588;BME280;34356;45.788;12.046;2022-09-02T01:50:53;100217.38;;;20.30;47.21
47588;BME280;34356;45.788;12.046;2022-09-02T01:53:20;100217.84;;;20.02;47.23
47588;BME280;34356;45.788;12.046;2022-09-02T01:55:48;100211.49;;;20.49;47.23
47588;BME280;34356;45.788;12.046;2022-09-02T01:58:16;100202.03;;;19.99;47.23
47588;BME280;34356;45.788;12.046;2022-09-02T02:00:44;100197.68;;;20.27;47.12
47588;BME280;34356;45.788;12.046;2022-09-02T02:03:12;100193.52;;;20.06;47.10
47588;BME280;34356;45.788;12.046;2022-09-02T02:05:39;100190.25;;;20.27;47.09
47588;BME280;34356;45.788;12.046;2022-09-02T02:08:07;100190.04;;;20.30;46.98
47588;BME280;34356;45.788;12.046;2022-09-02T02:10:35;100193.54;;;20.27;47.06
47588;BME280;34356;45.788;12.046;2022-09-02T02:13:03;100196.68;;;20.24;47.13
47588;BME280;34356;45.788;12.046;2022-09-02T02:15:30;100200.75;;;20.20;47.12
47588;BME280;34356;45.788;12.046;2022-09-02T02:17:57;100200.74;;;20.40;47.17
47588;BME280;34356;45.788;12.046;2022-09-02T02:20:24;100204.72;;;20.12;47.10
47588;BME280;34356;45.788;12.046;2022-09-02T02:22:52;100206.06;;;20.04;47.18
47588;BME280;34356;45.788;12.046;2022-09-02T02:25:20;100203.95;;;19.98;47.19
47588;BME280;34356;45.788;12.046;2022-09-02T02:27:47;100203.44;;;19.94;47.20
47588;BME280;34356;45.788;12.046;2022-09-02T02:30:15;100199.19;;;19.89;47.28
47588;BME280;34356;45.788;12.046;2022-09-02T02:32:44;100196.23;;;19.87;47.31
47588;BME280;34356;45.788;12.046;2022-09-02T02:35:12;100192.13;;;19.68;47.25
47588;BME280;34356;45.788;12.046;2022-09-02T02:37:39;100192.43;;;20.21;47.16
47588;BME280;34356;45.788;12.046;2022-09-02T02:40:08;100189.50;;;19.93;47.21
47588;BME280;34356;45.788;12.046;2022-09-02T02:42:37;100188.11;;;19.91;47.20
47588;BME280;34356;45.788;12.046;2022-09-02T02:45:04;100183.16;;;20.14;47.29
47588;BME280;34356;45.788;12.046;2022-09-02T02:47:32;100184.05;;;20.13;47.31
47588;BME280;34356;45.788;12.046;2022-09-02T02:49:59;100185.50;;;20.13;47.24
47588;BME280;34356;45.788;12.046;2022-09-02T02:52:26;100183.22;;;19.82;47.19
47588;BME280;34356;45.788;12.046;2022-09-02T02:54:53;100185.54;;;20.03;47.32
47588;BME280;34356;45.788;12.046;2022-09-02T02:57:19;100184.07;;;19.70;47.40
47588;BME280;34356;45.788;12.046;2022-09-02T02:59:46;100184.44;;;19.66;47.36
47588;BME280;34356;45.788;12.046;2022-09-02T03:02:13;100180.30;;;19.43;47.28
47588;BME280;34356;45.788;12.046;2022-09-02T03:04:40;100181.18;;;19.63;47.35
47588;BME280;34356;45.788;12.046;2022-09-02T03:07:08;100178.82;;;19.62;47.43
47588;BME280;34356;45.788;12.046;2022-09-02T03:09:35;100174.00;;;19.88;47.42
47588;BME280;34356;45.788;12.046;2022-09-02T03:12:03;100174.80;;;19.90;47.39
47588;BME280;34356;45.788;12.046;2022-09-02T03:14:30;100173.36;;;19.67;47.32
47588;BME280;34356;45.788;12.046;2022-09-02T03:16:57;100170.60;;;19.69;47.25
47588;BME280;34356;45.788;12.046;2022-09-02T03:19:24;100168.05;;;19.68;47.29
47588;BME280;34356;45.788;12.046;2022-09-02T03:21:52;100167.54;;;19.67;47.32
47588;BME280;34356;45.788;12.046;2022-09-02T03:24:19;100167.63;;;19.66;47.34
47588;BME280;34356;45.788;12.046;2022-09-02T03:26:46;100167.59;;;19.65;47.36
47588;BME280;34356;45.788;12.046;2022-09-02T03:29:13;100169.75;;;19.43;47.37
47588;BME280;34356;45.788;12.046;2022-09-02T03:31:40;100170.25;;;19.94;47.33
47588;BME280;34356;45.788;12.046;2022-09-02T03:34:08;100174.05;;;19.70;47.31
47588;BME280;34356;45.788;12.046;2022-09-02T03:36:38;100170.27;;;19.98;47.25
47588;BME280;34356;45.788;12.046;2022-09-02T03:39:09;100166.04;;;19.69;47.35
47588;BME280;34356;45.788;12.046;2022-09-02T03:41:37;100161.28;;;19.67;47.36
47588;BME280;34356;45.788;12.046;2022-09-02T03:44:04;100158.26;;;19.94;47.36
47588;BME280;34356;45.788;12.046;2022-09-02T03:46:31;100153.83;;;19.91;47.49
47588;BME280;34356;45.788;12.046;2022-09-02T03:48:58;100155.40;;;19.87;47.53
47588;BME280;34356;45.788;12.046;2022-09-02T03:51:26;100157.16;;;19.88;47.54
47588;BME280;34356;45.788;12.046;2022-09-02T03:53:54;100158.81;;;19.89;47.55
47588;BME280;34356;45.788;12.046;2022-09-02T03:56:21;100156.53;;;19.60;47.60
47588;BME280;34356;45.788;12.046;2022-09-02T03:58:50;100157.25;;;19.61;47.65
47588;BME280;34356;45.788;12.046;2022-09-02T04:01:21;100155.94;;;19.62;47.56
47588;BME280;34356;45.788;12.046;2022-09-02T04:03:49;100151.57;;;19.90;47.51
47588;BME280;34356;45.788;12.046;2022-09-02T04:06:19;100149.78;;;19.44;47.41
47588;BME280;34356;45.788;12.046;2022-09-02T04:08:47;100147.81;;;19.70;47.33
47588;BME280;34356;45.788;12.046;2022-09-02T04:11:17;100148.14;;;19.29;47.20
47588;BME280;34356;45.788;12.046;2022-09-02T04:13:45;100152.85;;;20.05;46.84
47588;BME280;34356;45.788;12.046;2022-09-02T04:16:19;100154.66;;;19.59;46.15
47588;BME280;34356;45.788;12.046;2022-09-02T04:18:46;100154.89;;;19.80;45.77
47588;BME280;34356;45.788;12.046;2022-09-02T04:21:15;100154.01;;;19.80;45.50
47588;BME280;34356;45.788;12.046;2022-09-02T04:23:42;100157.30;;;20.04;45.37
47588;BME280;34356;45.788;12.046;2022-09-02T04:26:11;100160.94;;;20.07;45.22
47588;BME280;34356;45.788;12.046;2022-09-02T04:28:39;100162.56;;;20.10;45.04
47588;BME280;34356;45.788;12.046;2022-09-02T04:31:08;100158.52;;;19.86;45.05
47588;BME280;34356;45.788;12.046;2022-09-02T04:33:36;100161.37;;;19.71;45.25
47588;BME280;34356;45.788;12.046;2022-09-02T04:36:04;100162.83;;;19.97;45.38
47588;BME280;34356;45.788;12.046;2022-09-02T04:38:32;100163.47;;;19.70;45.64
47588;BME280;34356;45.788;12.046;2022-09-02T04:41:03;100165.24;;;19.88;45.90
47588;BME280;34356;45.788;12.046;2022-09-02T04:43:32;100165.74;;;19.84;46.06
47588;BME280;34356;45.788;12.046;2022-09-02T04:45:59;100166.87;;;19.57;46.19
47588;BME280;34356;45.788;12.046;2022-09-02T04:48:26;100172.27;;;19.54;46.30
47588;BME280;34356;45.788;12.046;2022-09-02T04:50:53;100176.81;;;19.52;46.33
47588;BME280;34356;45.788;12.046;2022-09-02T04:53:20;100182.33;;;19.71;46.38
47588;BME280;34356;45.788;12.046;2022-09-02T04:55:47;100182.89;;;19.68;46.36
47588;BME280;34356;45.788;12.046;2022-09-02T04:58:14;100183.72;;;19.51;46.90
47588;BME280;34356;45.788;12.046;2022-09-02T05:00:41;100189.69;;;19.69;46.93
47588;BME280;34356;45.788;12.046;2022-09-02T05:03:09;100191.17;;;19.87;46.57
47588;BME280;34356;45.788;12.046;2022-09-02T05:05:37;100190.66;;;19.99;46.39
47588;BME280;34356;45.788;12.046;2022-09-02T05:08:05;100191.95;;;20.58;46.27
47588;BME280;34356;45.788;12.046;2022-09-02T05:10:32;100189.92;;;20.19;46.27
47588;BME280;34356;45.788;12.046;2022-09-02T05:13:00;100189.62;;;20.28;45.97
47588;BME280;34356;45.788;12.046;2022-09-02T05:15:27;100190.25;;;20.26;45.89
47588;BME280;34356;45.788;12.046;2022-09-02T05:17:55;100191.00;;;20.21;45.75
47588;BME280;34356;45.788;12.046;2022-09-02T05:20:22;100190.95;;;20.17;45.98
47588;BME280;34356;45.788;12.046;2022-09-02T05:22:49;100192.65;;;20.45;46.01
47588;BME280;34356;45.788;12.046;2022-09-02T05:25:16;100192.94;;;20.03;45.99
47588;BME280;34356;45.788;12.046;2022-09-02T05:27:44;100192.70;;;20.26;46.10
47588;BME280;34356;45.788;12.046;2022-09-02T05:30:12;100192.21;;;20.30;46.03
47588;BME280;34356;45.788;12.046;2022-09-02T05:32:39;100192.85;;;20.53;46.13
47588;BME280;34356;45.788;12.046;2022-09-02T05:35:07;100191.64;;;20.56;46.03
47588;BME280;34356;45.788;12.046;2022-09-02T05:37:34;100194.10;;;20.34;46.21
47588;BME280;34356;45.788;12.046;2022-09-02T05:40:02;100196.89;;;20.64;46.07
47588;BME280;34356;45.788;12.046;2022-09-02T05:42:30;100198.05;;;20.49;45.88
47588;BME280;34356;45.788;12.046;2022-09-02T05:44:57;100198.84;;;20.47;45.75
47588;BME280;34356;45.788;12.046;2022-09-02T05:47:24;100198.82;;;20.40;45.91
47588;BME280;34356;45.788;12.046;2022-09-02T05:49:51;100199.68;;;20.41;45.94
47588;BME280;34356;45.788;12.046;2022-09-02T05:52:18;100203.27;;;20.49;45.85
47588;BME280;34356;45.788;12.046;2022-09-02T05:54:45;100202.13;;;20.59;45.86
47588;BME280;34356;45.788;12.046;2022-09-02T05:57:13;100203.67;;;20.22;45.63
47588;BME280;34356;45.788;12.046;2022-09-02T05:59:42;100198.18;;;21.01;45.48
47588;BME280;34356;45.788;12.046;2022-09-02T06:02:12;100200.31;;;20.81;45.36
47588;BME280;34356;45.788;12.046;2022-09-02T06:04:41;100198.94;;;20.81;45.34
47588;BME280;34356;45.788;12.046;2022-09-02T06:07:09;100196.14;;;21.05;45.26
47588;BME280;34356;45.788;12.046;2022-09-02T06:09:36;100193.41;;;21.02;45.20
47588;BME280;34356;45.788;12.046;2022-09-02T06:12:04;100189.79;;;20.95;45.31
47588;BME280;34356;45.788;12.046;2022-09-02T06:14:32;100190.69;;;20.94;45.29
47588;BME280;34356;45.788;12.046;2022-09-02T06:17:00;100188.65;;;20.75;45.36
47588;BME280;34356;45.788;12.046;2022-09-02T06:19:27;100189.17;;;20.83;45.16
47588;BME280;34356;45.788;12.046;2022-09-02T06:21:56;100189.05;;;20.79;45.16
47588;BME280;34356;45.788;12.046;2022-09-02T06:24:23;100186.92;;;20.84;45.19
47588;BME280;34356;45.788;12.046;2022-09-02T06:26:51;100186.70;;;20.94;45.10
47588;BME280;34356;45.788;12.046;2022-09-02T06:29:19;100186.24;;;21.06;44.98
47588;BME280;34356;45.788;12.046;2022-09-02T06:31:48;100185.07;;;21.16;44.75
47588;BME280;34356;45.788;12.046;2022-09-02T06:34:17;100185.76;;;21.28;44.54
47588;BME280;34356;45.788;12.046;2022-09-02T06:36:46;100183.32;;;20.94;44.46
47588;BME280;34356;45.788;12.046;2022-09-02T06:39:16;100179.62;;;21.33;44.13
47588;BME280;34356;45.788;12.046;2022-09-02T06:41:44;100183.59;;;21.67;44.02
47588;BME280;34356;45.788;12.046;2022-09-02T06:44:12;100182.23;;;21.31;43.72
47588;BME280;34356;45.788;12.046;2022-09-02T06:46:42;100181.86;;;21.40;43.50
47588;BME280;34356;45.788;12.046;2022-09-02T06:49:10;100181.27;;;21.47;43.44
47588;BME280;34356;45.788;12.046;2022-09-02T06:51:40;100183.48;;;21.75;43.10
47588;BME280;34356;45.788;12.046;2022-09-02T06:54:09;100182.33;;;21.54;43.24
47588;BME280;34356;45.788;12.046;2022-09-02T06:56:37;100189.91;;;21.60;42.96
47588;BME280;34356;45.788;12.046;2022-09-02T06:59:05;100188.82;;;21.63;42.87
47588;BME280;34356;45.788;12.046;2022-09-02T07:01:32;100191.70;;;21.98;42.64
47588;BME280;34356;45.788;12.046;2022-09-02T07:04:00;100194.04;;;22.04;42.62
47588;BME280;34356;45.788;12.046;2022-09-02T07:06:26;100199.22;;;21.79;42.36
47588;BME280;34356;45.788;12.046;2022-09-02T07:08:53;100200.46;;;21.82;42.20
47588;BME280;34356;45.788;12.046;2022-09-02T07:11:22;100203.68;;;21.87;42.21
47588;BME280;34356;45.788;12.046;2022-09-02T07:13:50;100202.33;;;21.86;42.17
47588;BME280;34356;45.788;12.046;2022-09-02T07:16:17;100203.37;;;21.91;42.13
47588;BME280;34356;45.788;12.046;2022-09-02T07:18:45;100198.72;;;22.00;41.91
47588;BME280;34356;45.788;12.046;2022-09-02T07:21:12;100197.73;;;21.90;41.71
47588;BME280;34356;45.788;12.046;2022-09-02T07:23:40;100196.91;;;22.18;41.41
47588;BME280;34356;45.788;12.046;2022-09-02T07:26:11;100196.22;;;22.25;41.14
47588;BME280;34356;45.788;12.046;2022-09-02T07:28:39;100198.79;;;22.16;41.03
47588;BME280;34356;45.788;12.046;2022-09-02T07:31:08;100201.28;;;22.32;40.73
47588;BME280;34356;45.788;12.046;2022-09-02T07:33:36;100204.18;;;22.48;40.40
47588;BME280;34356;45.788;12.046;2022-09-02T07:36:04;100204.60;;;22.60;39.94
47588;BME280;34356;45.788;12.046;2022-09-02T07:38:32;100203.81;;;22.75;39.73
47588;BME280;34356;45.788;12.046;2022-09-02T07:41:00;100200.46;;;22.62;39.32
47588;BME280;34356;45.788;12.046;2022-09-02T07:43:29;100197.36;;;22.73;39.29
47588;BME280;34356;45.788;12.046;2022-09-02T07:45:57;100193.78;;;22.85;38.92
47588;BME280;34356;45.788;12.046;2022-09-02T07:48:25;100192.14;;;22.75;38.60
47588;BME280;34356;45.788;12.046;2022-09-02T07:50:52;100188.62;;;23.08;38.49
47588;BME280;34356;45.788;12.046;2022-09-02T07:53:20;100189.49;;;22.96;38.23
47588;BME280;34356;45.788;12.046;2022-09-02T07:55:47;100188.52;;;23.06;37.93
47588;BME280;34356;45.788;12.046;2022-09-02T07:58:16;100186.79;;;22.93;37.68
47588;BME280;34356;45.788;12.046;2022-09-02T08:00:45;100186.44;;;23.19;37.56
47588;BME280;34356;45.788;12.046;2022-09-02T08:03:13;100186.80;;;22.98;37.44
47588;BME280;34356;45.788;12.046;2022-09-02T08:05:41;100185.64;;;23.48;37.28
47588;BME280;34356;45.788;12.046;2022-09-02T08:08:09;100185.65;;;23.56;37.08
47588;BME280;34356;45.788;12.046;2022-09-02T08:10:37;100185.76;;;23.18;36.89
47588;BME280;34356;45.788;12.046;2022-09-02T08:13:05;100183.12;;;23.24;36.74
47588;BME280;34356;45.788;12.046;2022-09-02T08:15:34;100181.61;;;23.51;36.63
47588;BME280;34356;45.788;12.046;2022-09-02T08:18:02;100180.52;;;23.79;36.54
47588;BME280;34356;45.788;12.046;2022-09-02T08:20:30;100182.32;;;23.41;36.29
47588;BME280;34356;45.788;12.046;2022-09-02T08:22:56;100184.16;;;23.90;36.30
47588;BME280;34356;45.788;12.046;2022-09-02T08:25:24;100182.92;;;23.72;36.11
47588;BME280;34356;45.788;12.046;2022-09-02T08:27:52;100180.70;;;23.99;35.89
47588;BME280;34356;45.788;12.046;2022-09-02T08:30:20;100183.39;;;23.88;36.09
47588;BME280;34356;45.788;12.046;2022-09-02T08:32:47;100183.59;;;23.72;35.55
47588;BME280;34356;45.788;12.046;2022-09-02T08:35:14;100185.47;;;23.80;35.31
47588;BME280;34356;45.788;12.046;2022-09-02T08:37:41;100187.05;;;23.87;35.21
47588;BME280;34356;45.788;12.046;2022-09-02T08:40:16;100187.33;;;23.94;35.13
47588;BME280;34356;45.788;12.046;2022-09-02T08:42:46;100189.99;;;23.98;35.24
47588;BME280;34356;45.788;12.046;2022-09-02T08:45:20;100188.24;;;23.98;35.03
47588;BME280;34356;45.788;12.046;2022-09-02T08:47:52;100188.41;;;23.94;34.64
47588;BME280;34356;45.788;12.046;2022-09-02T08:50:23;100189.90;;;23.97;34.68
47588;BME280;34356;45.788;12.046;2022-09-02T08:52:56;100187.49;;;24.29;34.81
47588;BME280;34356;45.788;12.046;2022-09-02T08:55:33;100187.31;;;24.14;34.57
47588;BME280;34356;45.788;12.046;2022-09-02T08:58:01;100185.20;;;24.22;34.47
47588;BME280;34356;45.788;12.046;2022-09-02T09:00:34;100188.13;;;24.32;34.48
47588;BME280;34356;45.788;12.046;2022-09-02T09:03:16;100184.01;;;24.12;34.15
47588;BME280;34356;45.788;12.046;2022-09-02T09:05:51;100183.16;;;24.45;34.26
47588;BME280;34356;45.788;12.046;2022-09-02T09:08:29;100182.36;;;24.27;34.16
47588;BME280;34356;45.788;12.046;2022-09-02T09:11:02;100177.98;;;24.33;33.97
47588;BME280;34356;45.788;12.046;2022-09-02T09:13:48;100172.43;;;24.63;33.99
47588;BME280;34356;45.788;12.046;2022-09-02T09:16:26;100171.72;;;24.42;33.90
47588;BME280;34356;45.788;12.046;2022-09-02T09:18:59;100168.93;;;24.74;33.97
47588;BME280;34356;45.788;12.046;2022-09-02T09:21:30;100166.03;;;24.54;34.20
47588;BME280;34356;45.788;12.046;2022-09-02T09:23:59;100166.11;;;24.52;34.03
47588;BME280;34356;45.788;12.046;2022-09-02T09:26:28;100165.02;;;24.23;33.83
47588;BME280;34356;45.788;12.046;2022-09-02T09:28:59;100164.97;;;24.75;33.86
47588;BME280;34356;45.788;12.046;2022-09-02T09:31:30;100163.00;;;24.79;33.82
47588;BME280;34356;45.788;12.046;2022-09-02T09:34:00;100161.57;;;24.86;33.84
47588;BME280;34356;45.788;12.046;2022-09-02T09:36:45;100159.37;;;24.66;33.73
47588;BME280;34356;45.788;12.046;2022-09-02T09:39:18;100154.30;;;24.30;33.74
47588;BME280;34356;45.788;12.046;2022-09-02T09:41:47;100154.05;;;24.83;33.69
47588;BME280;34356;45.788;12.046;2022-09-02T09:44:35;100147.96;;;24.90;33.73
47588;BME280;34356;45.788;12.046;2022-09-02T09:47:04;100142.83;;;25.00;33.66
47588;BME280;34356;45.788;12.046;2022-09-02T09:49:32;100139.16;;;25.34;33.35
47588;BME280;34356;45.788;12.046;2022-09-02T09:51:59;100135.95;;;25.19;33.70
47588;BME280;34356;45.788;12.046;2022-09-02T09:54:27;100133.64;;;25.05;33.31
47588;BME280;34356;45.788;12.046;2022-09-02T09:56:55;100135.90;;;25.13;33.32
47588;BME280;34356;45.788;12.046;2022-09-02T09:59:38;100144.00;;;25.46;33.29
47588;BME280;34356;45.788;12.046;2022-09-02T10:02:16;100145.12;;;25.38;33.35
47588;BME280;34356;45.788;12.046;2022-09-02T10:04:45;100145.12;;;25.73;33.20
47588;BME280;34356;45.788;12.046;2022-09-02T10:07:12;100140.53;;;25.39;33.09
47588;BME280;34356;45.788;12.046;2022-09-02T10:09:40;100138.45;;;25.72;32.94
47588;BME280;34356;45.788;12.046;2022-09-02T10:12:10;100140.49;;;25.78;33.11
47588;BME280;34356;45.788;12.046;2022-09-02T10:14:40;100137.57;;;25.74;32.57
47588;BME280;34356;45.788;12.046;2022-09-02T10:17:26;100132.41;;;25.77;32.97
47588;BME280;34356;45.788;12.046;2022-09-02T10:20:05;100131.34;;;25.94;32.49
47588;BME280;34356;45.788;12.046;2022-09-02T10:23:13;100129.13;;;25.74;32.62
47588;BME280;34356;45.788;12.046;2022-09-02T10:25:55;100128.88;;;25.65;32.42
47588;BME280;34356;45.788;12.046;2022-09-02T10:28:39;100129.70;;;26.10;32.24
47588;BME280;34356;45.788;12.046;2022-09-02T10:31:17;100127.83;;;25.85;32.10
47588;BME280;34356;45.788;12.046;2022-09-02T10:33:59;100126.69;;;26.55;31.75
47588;BME280;34356;45.788;12.046;2022-09-02T10:36:34;100124.77;;;26.49;31.40
47588;BME280;34356;45.788;12.046;2022-09-02T10:39:16;100121.53;;;26.31;31.16
47588;BME280;34356;45.788;12.046;2022-09-02T10:41:48;100119.97;;;26.40;31.32
47588;BME280;34356;45.788;12.046;2022-09-02T10:44:25;100116.23;;;26.44;31.17
47588;BME280;34356;45.788;12.046;2022-09-02T10:46:59;100116.35;;;26.76;30.88
47588;BME280;34356;45.788;12.046;2022-09-02T10:49:37;100115.70;;;26.54;31.01
47588;BME280;34356;45.788;12.046;2022-09-02T10:52:15;100109.77;;;26.58;30.65
47588;BME280;34356;45.788;12.046;2022-09-02T10:54:54;100105.73;;;26.59;30.83
47588;BME280;34356;45.788;12.046;2022-09-02T10:57:29;100106.78;;;26.58;30.58
47588;BME280;34356;45.788;12.046;2022-09-02T11:00:03;100099.95;;;26.85;30.73
47588;BME280;34356;45.788;12.046;2022-09-02T11:02:33;100097.48;;;26.66;30.67
47588;BME280;34356;45.788;12.046;2022-09-02T11:05:06;100094.25;;;26.81;30.21
47588;BME280;34356;45.788;12.046;2022-09-02T11:07:43;100089.21;;;26.98;30.21
47588;BME280;34356;45.788;12.046;2022-09-02T11:10:16;100092.33;;;26.90;30.33
47588;BME280;34356;45.788;12.046;2022-09-02T11:12:49;100093.20;;;27.01;30.20
47588;BME280;34356;45.788;12.046;2022-09-02T11:15:22;100091.72;;;27.04;29.89
47588;BME280;34356;45.788;12.046;2022-09-02T11:17:59;100092.79;;;27.12;29.81
47588;BME280;34356;45.788;12.046;2022-09-02T11:20:33;100090.17;;;27.37;29.86
47588;BME280;34356;45.788;12.046;2022-09-02T11:23:07;100090.95;;;27.44;29.76
47588;BME280;34356;45.788;12.046;2022-09-02T11:25:42;100091.23;;;27.52;29.69
47588;BME280;34356;45.788;12.046;2022-09-02T11:28:24;100088.60;;;27.04;29.15
47588;BME280;34356;45.788;12.046;2022-09-02T11:30:59;100087.01;;;27.56;29.34
47588;BME280;34356;45.788;12.046;2022-09-02T11:33:33;100085.90;;;27.43;29.32
47588;BME280;34356;45.788;12.046;2022-09-02T11:36:03;100083.37;;;27.56;29.42
47588;BME280;34356;45.788;12.046;2022-09-02T11:38:34;100083.90;;;27.63;28.92
47588;BME280;34356;45.788;12.046;2022-09-02T11:41:20;100081.22;;;27.66;29.12
47588;BME280;34356;45.788;12.046;2022-09-02T11:43:53;100078.52;;;27.65;28.90
47588;BME280;34356;45.788;12.046;2022-09-02T11:46:40;100074.78;;;27.49;28.92
47588;BME280;34356;45.788;12.046;2022-09-02T11:50:23;100075.15;;;27.69;28.94
47588;BME280;34356;45.788;12.046;2022-09-02T11:53:04;100070.43;;;28.00;28.89
47588;BME280;34356;45.788;12.046;2022-09-02T11:55:41;100066.66;;;28.15;28.56
47588;BME280;34356;45.788;12.046;2022-09-02T11:58:33;100065.50;;;28.02;28.52
47588;BME280;34356;45.788;12.046;2022-09-02T12:01:18;100066.67;;;28.27;28.54
47588;BME280;34356;45.788;12.046;2022-09-02T12:03:52;100059.54;;;28.22;28.44
47588;BME280;34356;45.788;12.046;2022-09-02T12:06:21;100061.72;;;28.21;28.66
47588;BME280;34356;45.788;12.046;2022-09-02T12:09:03;100058.77;;;28.48;28.55
47588;BME280;34356;45.788;12.046;2022-09-02T12:11:37;100053.27;;;27.95;28.52
47588;BME280;34356;45.788;12.046;2022-09-02T12:14:06;100048.69;;;28.20;28.54
47588;BME280;34356;45.788;12.046;2022-09-02T12:16:43;100049.29;;;28.23;28.70
47588;BME280;34356;45.788;12.046;2022-09-02T12:19:28;100045.13;;;28.29;28.58
47588;BME280;34356;45.788;12.046;2022-09-02T12:22:24;100043.72;;;28.37;28.50
47588;BME280;34356;45.788;12.046;2022-09-02T12:24:54;100045.70;;;28.43;28.52
47588;BME280;34356;45.788;12.046;2022-09-02T12:27:25;100050.73;;;28.48;28.53
47588;BME280;34356;45.788;12.046;2022-09-02T12:29:54;100050.98;;;28.53;28.44
47588;BME280;34356;45.788;12.046;2022-09-02T12:33:04;100044.17;;;28.60;28.30
47588;BME280;34356;45.788;12.046;2022-09-02T12:35:53;100039.74;;;28.70;28.38
47588;BME280;34356;45.788;12.046;2022-09-02T12:38:25;100038.06;;;28.35;28.32
47588;BME280;34356;45.788;12.046;2022-09-02T12:40:58;100035.00;;;28.63;28.24
47588;BME280;34356;45.788;12.046;2022-09-02T12:43:32;100031.18;;;28.93;28.26
47588;BME280;34356;45.788;12.046;2022-09-02T12:46:13;100026.45;;;28.95;27.83
47588;BME280;34356;45.788;12.046;2022-09-02T12:48:50;100021.84;;;28.84;27.77
47588;BME280;34356;45.788;12.046;2022-09-02T12:52:05;100018.99;;;28.72;27.65
47588;BME280;34356;45.788;12.046;2022-09-02T12:54:41;100018.11;;;28.77;27.61
47588;BME280;34356;45.788;12.046;2022-09-02T12:57:10;100014.57;;;28.77;27.61
47588;BME280;34356;45.788;12.046;2022-09-02T12:59:39;100010.71;;;29.04;27.61